x

La Have Bank (44150) Wave Buoy

5:00pm - Wed 2nd Sep 2015 All times are ADT. -3 hours from GMT.

  • Sig Wave height 3.0ft
  • Peak Period 7s
  • Wind
    13mph, 16mph gusts
  • Sea Temp 70°f
  • Air Temp 68°f
  • Sea Pressure 1015.5mb
  • La Have Bank
  • La Have Bank

More Historic Weather Station data

Upgrade to MSW Pro to gain access to the past 30 days of data for over 8000 Wavebouys and Weather Stations around the globe.

Join Pro

Comparision Forecast

View Surf forecast
   
Wed 09/02 5:00pm 3ft 7s 13 16 mph 1015.5mb 70f 68f
4:00pm 3ft 7s 13 18 mph 1016.7mb 70f 69f
3:00pm 3ft 7s 11 13 mph 1018.1mb 70f 68f
2:00pm 3ft 7s 7 9 mph 1018.8mb 70f 68f
1:00pm 3ft 7s 2 7 mph 1019.1mb 69f 67f
12:00pm 3ft 8s 9
mph
1019mb 69f 67f
11:00am 3ft 7s 11 13 mph 1018.8mb 69f 66f
10:00am 3ft 7s 9 11 mph 1018.3mb 69f 67f
9:00am  -   -  4
mph
1017.4mb - 67f
8:00am 3.5ft 8s  -  mph 1016.3mb 69f 67f
7:00am 4ft 5s  -  mph 1016mb 69f 66f
6:00am 4.5ft 5s  -  mph 1016.1mb 69f 60f
5:00am 4ft 5s 4 9 mph 1016.3mb 69f 66f
4:00am 4.5ft 5s 7 9 mph 1016.5mb 69f 66f
3:00am 4.5ft 6s 9 13 mph 1016.5mb 69f 67f
2:00am 4.5ft 6s 9 13 mph 1016.4mb 69f 67f
1:00am 3.5ft 7s 9 11 mph 1016.1mb 69f 66f
12:00am 3.5ft 7s 9 11 mph 1015.7mb 69f 66f
Tue 09/01 11:00pm 3ft 7s 9 11 mph 1015.4mb 69f 66f
10:00pm 3.5ft 6s 9 11 mph 1015.1mb 69f 66f
9:00pm 3.5ft 6s 11 13 mph 1014.8mb 69f 66f
8:00pm 3.5ft 6s 13 16 mph 1014.8mb 69f 66f
7:00pm 4.5ft 6s 11 16 mph 1015.3mb 69f 66f
5:00pm 5ft 6s 11 13 mph 1015.2mb 69f 66f
4:00pm 5.5ft 6s 11 16 mph 1015mb 69f 66f
3:00pm 5.5ft 6s 20 25 mph 1014.8mb 69f 66f
2:00pm 5ft 5s 18 22 mph 1014.6mb 69f 66f
1:00pm 4.5ft 5s 18 22 mph 1014.6mb 69f 66f
12:00pm 4ft 5s 18 20 mph 1014.4mb 69f 66f
9:00am  -   -  25
mph
1011.7mb 69f 68f
8:00am 3.5ft 6s 22 27 mph 1010.8mb 69f 68f
7:00am 4ft 6s 20 25 mph 1010.2mb 69f 68f
6:00am 4.5ft 6s 20 25 mph 1009.9mb 69f 68f
5:00am 5ft 6s 20 25 mph 1009.9mb 69f 69f
4:00am  -   -  22
mph
- - 69f
3:00am 5ft 6s 22 27 mph 1009.9mb 69f 70f
2:00am 5ft 6s 22 29 mph 1009.9mb 69f 70f
1:00am 5ft 6s 22 27 mph 1009.9mb 69f 70f
12:00am 4.5ft 6s 20 22 mph 1009.8mb 69f 69f
Mon 08/31 11:00pm 4.5ft 5s 22 27 mph 1009.7mb 69f 69f
10:00pm 4ft 5s 22 27 mph 1009.6mb 69f 68f
9:00pm 3.5ft 5s 22 27 mph 1009.7mb 69f 67f
8:00pm 3.5ft 5s 22 27 mph 1010mb 69f 67f
7:00pm 3.5ft 8s 20 25 mph 1010.8mb 69f 69f
6:00pm 2.5ft 9s 20 22 mph 1011.2mb 69f 70f
5:00pm 3ft 9s 20 25 mph 1012.4mb 69f 70f
4:00pm 3.5ft 10s 18 20 mph 1013.9mb 69f 71f
3:00pm 3.5ft 5s 9 13 mph 1015.1mb 69f 70f
2:00pm 3ft 5s 13 16 mph 1016mb 69f 69f
12:00pm 2.5ft 5s 11 16 mph 1016.6mb 69f 67f
11:00am 2.5ft 9s 7 9 mph 1016mb 68f 67f
10:00am 2.5ft 9s 2 7 mph 1015.5mb 68f 66f
9:00am 2.5ft 8s 7 9 mph 1015.4mb 68f 66f
8:00am 2.5ft 10s 9 13 mph 1015.5mb 68f 66f
7:00am 2.5ft 10s 11 13 mph 1015.4mb 68f 68f
6:00am 2.5ft 9s 9 16 mph 1015.7mb 68f 69f
5:00am 2.5ft 10s 9 11 mph 1016mb 68f 69f
4:00am 3.5ft 9s 9 11 mph 1016mb 69f 69f
2:00am 3.5ft 9s 7 9 mph 1016.5mb 69f 69f
1:00am 2.5ft 9s  -  mph 1016.8mb 69f 69f
12:00am 2.5ft 10s 7 9 mph 1016.7mb 69f 69f
Sun 08/30 11:00pm 2.5ft 10s 7 9 mph 1016.6mb 69f 69f
10:00pm 2.5ft 10s 7 9 mph 1016.9mb 69f 70f
9:00pm 2.5ft 9s 7 9 mph 1016.9mb 69f 70f
8:00pm 2.5ft 10s  -  mph 1017.5mb 69f 70f
7:00pm 2.5ft 10s  -  mph 1018.2mb 69f 70f
6:00pm 2.5ft 10s 7 9 mph 1019mb 69f 70f
5:00pm 2.5ft 10s 7 9 mph 1019.9mb 69f 70f
2:00pm 3.5ft 9s 13 16 mph 1021.5mb 69f 70f
1:00pm 3ft 10s 13 16 mph 1022mb 69f 70f
12:00pm 3ft 10s 13 20 mph 1022.5mb 69f 70f
11:00am 3ft 10s 13 16 mph 1022.3mb 69f 70f
10:00am 3ft 11s 11
mph
1021.8mb 68f 69f
9:00am 2.5ft 10s 9
mph
1020.8mb 68f 69f
8:00am 2.5ft 10s 9 11 mph 1019.6mb 68f 69f
7:00am 3ft 11s 11 13 mph 1019.4mb 68f 68f
6:00am 3.5ft 10s 13 16 mph 1019.7mb 68f 68f
5:00am  -   -  16
mph
1020.1mb - 68f
4:00am 3.5ft 10s 18 20 mph 1020.2mb 69f 68f
3:00am 3.5ft 8s 16 20 mph 1020.2mb 69f 68f
2:00am 3.5ft 10s 11 13 mph 1020.3mb 69f 68f
1:00am 3ft 9s 9 11 mph 1020.4mb 69f 68f
Sat 08/29 11:00pm 2.5ft 10s 9 11 mph 1020mb 69f 68f
10:00pm 2.5ft 11s 9 11 mph 1020mb 68f 68f